sensor_id;sensor_type;location;lat;lon;timestamp;temperature;humidity
11246;DHT22;59870;50.106;8.580;2023-04-06T00:00:50;6.50;61.60
11246;DHT22;59870;50.106;8.580;2023-04-06T00:03:18;6.40;61.60
11246;DHT22;59870;50.106;8.580;2023-04-06T00:05:47;6.40;60.90
11246;DHT22;59870;50.106;8.580;2023-04-06T00:08:15;6.40;62.10
11246;DHT22;59870;50.106;8.580;2023-04-06T00:10:42;6.80;62.10
11246;DHT22;59870;50.106;8.580;2023-04-06T00:13:11;6.50;61.30
11246;DHT22;59870;50.106;8.580;2023-04-06T00:15:39;6.50;61.80
11246;DHT22;59870;50.106;8.580;2023-04-06T00:18:06;6.50;61.90
11246;DHT22;59870;50.106;8.580;2023-04-06T00:20:34;6.50;62.40
11246;DHT22;59870;50.106;8.580;2023-04-06T00:23:06;6.50;62.40
11246;DHT22;59870;50.106;8.580;2023-04-06T00:25:34;6.50;62.30
11246;DHT22;59870;50.106;8.580;2023-04-06T00:28:01;6.20;62.10
11246;DHT22;59870;50.106;8.580;2023-04-06T00:30:29;6.20;62.10
11246;DHT22;59870;50.106;8.580;2023-04-06T00:32:56;6.40;62.40
11246;DHT22;59870;50.106;8.580;2023-04-06T00:35:24;6.30;62.40
11246;DHT22;59870;50.106;8.580;2023-04-06T00:37:51;6.30;62.80
11246;DHT22;59870;50.106;8.580;2023-04-06T00:40:19;6.00;62.10
11246;DHT22;59870;50.106;8.580;2023-04-06T00:42:47;6.00;62.80
11246;DHT22;59870;50.106;8.580;2023-04-06T00:45:15;6.00;62.00
11246;DHT22;59870;50.106;8.580;2023-04-06T00:47:43;6.00;62.40
11246;DHT22;59870;50.106;8.580;2023-04-06T00:50:13;5.90;62.80
11246;DHT22;59870;50.106;8.580;2023-04-06T00:52:40;6.00;62.90
11246;DHT22;59870;50.106;8.580;2023-04-06T00:55:09;5.90;62.80
11246;DHT22;59870;50.106;8.580;2023-04-06T00:57:41;6.00;62.60
11246;DHT22;59870;50.106;8.580;2023-04-06T01:00:09;5.80;62.40
11246;DHT22;59870;50.106;8.580;2023-04-06T01:02:38;5.80;62.50
11246;DHT22;59870;50.106;8.580;2023-04-06T02:37:42;4.70;66.30
11246;DHT22;59870;50.106;8.580;2023-04-06T02:40:10;4.70;66.60
11246;DHT22;59870;50.106;8.580;2023-04-06T02:42:38;4.60;66.80
11246;DHT22;59870;50.106;8.580;2023-04-06T02:45:06;4.60;66.70
11246;DHT22;59870;50.106;8.580;2023-04-06T02:47:39;4.60;67.30
11246;DHT22;59870;50.106;8.580;2023-04-06T02:50:08;5.00;67.60
11246;DHT22;59870;50.106;8.580;2023-04-06T02:52:44;4.60;67.40
11246;DHT22;59870;50.106;8.580;2023-04-06T02:55:12;4.60;67.10
11246;DHT22;59870;50.106;8.580;2023-04-06T02:57:40;4.60;67.70
11246;DHT22;59870;50.106;8.580;2023-04-06T03:00:08;4.60;68.70
11246;DHT22;59870;50.106;8.580;2023-04-06T03:02:40;4.60;68.30
11246;DHT22;59870;50.106;8.580;2023-04-06T03:05:12;4.50;67.90
11246;DHT22;59870;50.106;8.580;2023-04-06T03:07:42;4.70;68.50
11246;DHT22;59870;50.106;8.580;2023-04-06T03:10:17;4.50;68.30
11246;DHT22;59870;50.106;8.580;2023-04-06T03:12:47;4.50;68.30
11246;DHT22;59870;50.106;8.580;2023-04-06T03:15:21;4.70;69.20
11246;DHT22;59870;50.106;8.580;2023-04-06T03:17:54;4.60;70.10
11246;DHT22;59870;50.106;8.580;2023-04-06T03:20:38;4.40;70.10
11246;DHT22;59870;50.106;8.580;2023-04-06T03:23:06;4.40;69.90
11246;DHT22;59870;50.106;8.580;2023-04-06T03:25:38;4.60;70.90
11246;DHT22;59870;50.106;8.580;2023-04-06T03:28:10;4.50;70.50
11246;DHT22;59870;50.106;8.580;2023-04-06T03:30:47;4.30;70.10
11246;DHT22;59870;50.106;8.580;2023-04-06T03:33:18;4.50;71.30
11246;DHT22;59870;50.106;8.580;2023-04-06T03:35:53;4.50;71.20
11246;DHT22;59870;50.106;8.580;2023-04-06T03:38:22;4.20;70.70
11246;DHT22;59870;50.106;8.580;2023-04-06T03:40:50;4.50;71.10
11246;DHT22;59870;50.106;8.580;2023-04-06T03:43:22;4.50;71.10
11246;DHT22;59870;50.106;8.580;2023-04-06T03:45:50;4.20;70.50
11246;DHT22;59870;50.106;8.580;2023-04-06T03:48:18;4.20;70.40
11246;DHT22;59870;50.106;8.580;2023-04-06T03:50:45;4.40;70.50
11246;DHT22;59870;50.106;8.580;2023-04-06T03:53:13;4.20;70.40
11246;DHT22;59870;50.106;8.580;2023-04-06T03:55:40;4.20;70.40
11246;DHT22;59870;50.106;8.580;2023-04-06T03:58:08;4.40;70.30
11246;DHT22;59870;50.106;8.580;2023-04-06T04:00:35;4.40;70.20
11246;DHT22;59870;50.106;8.580;2023-04-06T04:03:03;4.40;70.20
11246;DHT22;59870;50.106;8.580;2023-04-06T04:05:32;4.10;70.50
11246;DHT22;59870;50.106;8.580;2023-04-06T04:07:59;4.30;70.30
11246;DHT22;59870;50.106;8.580;2023-04-06T04:10:27;4.30;71.00
11246;DHT22;59870;50.106;8.580;2023-04-06T04:12:54;4.00;71.50
11246;DHT22;59870;50.106;8.580;2023-04-06T04:15:22;4.00;70.50
11246;DHT22;59870;50.106;8.580;2023-04-06T04:17:50;4.00;71.20
11246;DHT22;59870;50.106;8.580;2023-04-06T04:20:18;4.20;71.80
11246;DHT22;59870;50.106;8.580;2023-04-06T04:22:45;4.00;71.60
11246;DHT22;59870;50.106;8.580;2023-04-06T04:25:13;4.20;71.90
11246;DHT22;59870;50.106;8.580;2023-04-06T04:27:46;4.00;71.50
11246;DHT22;59870;50.106;8.580;2023-04-06T04:30:14;4.20;72.30
11246;DHT22;59870;50.106;8.580;2023-04-06T04:32:42;4.20;72.20
11246;DHT22;59870;50.106;8.580;2023-04-06T04:35:10;3.90;72.50
11246;DHT22;59870;50.106;8.580;2023-04-06T04:37:41;4.10;73.00
11246;DHT22;59870;50.106;8.580;2023-04-06T04:40:10;4.10;73.00
11246;DHT22;59870;50.106;8.580;2023-04-06T04:42:52;3.80;73.40
11246;DHT22;59870;50.106;8.580;2023-04-06T04:45:26;3.80;72.80
11246;DHT22;59870;50.106;8.580;2023-04-06T04:47:53;3.80;72.60
11246;DHT22;59870;50.106;8.580;2023-04-06T04:50:24;3.70;72.70
11246;DHT22;59870;50.106;8.580;2023-04-06T04:52:56;3.70;72.70
11246;DHT22;59870;50.106;8.580;2023-04-06T04:55:25;3.70;72.90
11246;DHT22;59870;50.106;8.580;2023-04-06T04:57:57;3.70;73.00
11246;DHT22;59870;50.106;8.580;2023-04-06T05:00:47;4.00;73.30
11246;DHT22;59870;50.106;8.580;2023-04-06T05:03:21;3.70;72.80
11246;DHT22;59870;50.106;8.580;2023-04-06T05:06:04;4.00;73.30
11246;DHT22;59870;50.106;8.580;2023-04-06T05:08:34;3.70;72.60
11246;DHT22;59870;50.106;8.580;2023-04-06T05:11:02;4.00;73.00
11246;DHT22;59870;50.106;8.580;2023-04-06T05:13:33;3.70;72.50
11246;DHT22;59870;50.106;8.580;2023-04-06T05:16:07;3.70;73.00
11246;DHT22;59870;50.106;8.580;2023-04-06T05:18:35;4.00;73.60
11246;DHT22;59870;50.106;8.580;2023-04-06T05:21:04;3.80;74.00
11246;DHT22;59870;50.106;8.580;2023-04-06T05:23:41;3.80;74.10
11246;DHT22;59870;50.106;8.580;2023-04-06T05:26:35;3.80;74.60
11246;DHT22;59870;50.106;8.580;2023-04-06T05:29:27;3.70;74.40
11246;DHT22;59870;50.106;8.580;2023-04-06T05:31:55;3.80;74.50
11246;DHT22;59870;50.106;8.580;2023-04-06T05:34:23;3.90;74.80
11246;DHT22;59870;50.106;8.580;2023-04-06T05:36:51;3.80;76.00
11246;DHT22;59870;50.106;8.580;2023-04-06T05:39:22;3.80;75.40
11246;DHT22;59870;50.106;8.580;2023-04-06T05:41:52;3.90;76.20
11246;DHT22;59870;50.106;8.580;2023-04-06T05:44:32;4.10;76.30
11246;DHT22;59870;50.106;8.580;2023-04-06T05:47:06;4.20;77.00
11246;DHT22;59870;50.106;8.580;2023-04-06T05:49:35;4.30;77.70
11246;DHT22;59870;50.106;8.580;2023-04-06T05:52:05;4.40;78.20
11246;DHT22;59870;50.106;8.580;2023-04-06T05:54:33;4.80;77.80
11246;DHT22;59870;50.106;8.580;2023-04-06T05:57:03;5.00;76.70
11246;DHT22;59870;50.106;8.580;2023-04-06T05:59:31;4.90;75.70
11246;DHT22;59870;50.106;8.580;2023-04-06T06:01:59;5.20;75.60
11246;DHT22;59870;50.106;8.580;2023-04-06T06:04:33;5.30;75.30
11246;DHT22;59870;50.106;8.580;2023-04-06T06:07:02;5.00;74.60
11246;DHT22;59870;50.106;8.580;2023-04-06T06:09:38;5.60;74.90
11246;DHT22;59870;50.106;8.580;2023-04-06T06:12:25;5.70;74.80
11246;DHT22;59870;50.106;8.580;2023-04-06T06:14:54;5.90;75.20
11246;DHT22;59870;50.106;8.580;2023-04-06T06:17:24;6.00;75.20
11246;DHT22;59870;50.106;8.580;2023-04-06T06:19:52;6.50;74.40
11246;DHT22;59870;50.106;8.580;2023-04-06T06:22:20;6.40;73.20
11246;DHT22;59870;50.106;8.580;2023-04-06T06:24:48;6.80;72.80
11246;DHT22;59870;50.106;8.580;2023-04-06T06:27:19;6.70;72.40
11246;DHT22;59870;50.106;8.580;2023-04-06T06:29:48;6.80;71.90
11246;DHT22;59870;50.106;8.580;2023-04-06T06:32:23;6.90;71.70
11246;DHT22;59870;50.106;8.580;2023-04-06T06:35:01;7.00;71.00
11246;DHT22;59870;50.106;8.580;2023-04-06T06:37:29;7.20;71.00
11246;DHT22;59870;50.106;8.580;2023-04-06T06:40:06;7.30;70.80
11246;DHT22;59870;50.106;8.580;2023-04-06T06:42:36;7.50;70.50
11246;DHT22;59870;50.106;8.580;2023-04-06T06:45:18;7.50;69.50
11246;DHT22;59870;50.106;8.580;2023-04-06T06:47:48;7.80;69.60
11246;DHT22;59870;50.106;8.580;2023-04-06T06:50:16;7.60;68.40
11246;DHT22;59870;50.106;8.580;2023-04-06T06:52:45;7.90;68.00
11246;DHT22;59870;50.106;8.580;2023-04-06T06:55:16;8.00;68.80
11246;DHT22;59870;50.106;8.580;2023-04-06T06:57:53;8.20;68.20
11246;DHT22;59870;50.106;8.580;2023-04-06T07:00:23;8.30;66.40
11246;DHT22;59870;50.106;8.580;2023-04-06T07:03:32;8.50;66.50
11246;DHT22;59870;50.106;8.580;2023-04-06T07:06:18;8.90;66.50
11246;DHT22;59870;50.106;8.580;2023-04-06T07:09:14;9.30;66.20
11246;DHT22;59870;50.106;8.580;2023-04-06T07:12:13;9.80;64.50
11246;DHT22;59870;50.106;8.580;2023-04-06T07:15:06;10.10;62.20
11246;DHT22;59870;50.106;8.580;2023-04-06T07:22:07;11.20;58.50
11246;DHT22;59870;50.106;8.580;2023-04-06T07:24:46;12.20;58.00
11246;DHT22;59870;50.106;8.580;2023-04-06T07:31:13;13.30;56.70
11246;DHT22;59870;50.106;8.580;2023-04-06T07:33:41;13.80;52.90
11246;DHT22;59870;50.106;8.580;2023-04-06T07:36:09;14.30;54.20
11246;DHT22;59870;50.106;8.580;2023-04-06T07:39:12;14.70;52.30
11246;DHT22;59870;50.106;8.580;2023-04-06T07:41:40;15.30;50.80
11246;DHT22;59870;50.106;8.580;2023-04-06T07:44:08;15.80;50.30
11246;DHT22;59870;50.106;8.580;2023-04-06T07:46:35;16.30;49.30
11246;DHT22;59870;50.106;8.580;2023-04-06T07:49:04;16.70;47.40
11246;DHT22;59870;50.106;8.580;2023-04-06T07:51:37;17.20;46.00
11246;DHT22;59870;50.106;8.580;2023-04-06T07:54:04;17.60;45.10
11246;DHT22;59870;50.106;8.580;2023-04-06T07:56:32;18.00;45.40
11246;DHT22;59870;50.106;8.580;2023-04-06T07:59:00;18.20;43.50
11246;DHT22;59870;50.106;8.580;2023-04-06T08:01:28;18.60;43.50
11246;DHT22;59870;50.106;8.580;2023-04-06T08:03:56;18.90;41.80
11246;DHT22;59870;50.106;8.580;2023-04-06T08:06:24;19.00;40.90
11246;DHT22;59870;50.106;8.580;2023-04-06T08:08:51;19.30;40.90
11246;DHT22;59870;50.106;8.580;2023-04-06T08:11:19;19.60;40.30
11246;DHT22;59870;50.106;8.580;2023-04-06T08:13:47;19.90;40.60
11246;DHT22;59870;50.106;8.580;2023-04-06T08:16:15;20.30;39.70
11246;DHT22;59870;50.106;8.580;2023-04-06T08:18:43;20.80;39.70
11246;DHT22;59870;50.106;8.580;2023-04-06T08:21:11;21.20;39.10
11246;DHT22;59870;50.106;8.580;2023-04-06T08:23:38;21.40;37.20
11246;DHT22;59870;50.106;8.580;2023-04-06T08:26:06;21.70;37.10
11246;DHT22;59870;50.106;8.580;2023-04-06T08:28:33;22.10;38.00
11246;DHT22;59870;50.106;8.580;2023-04-06T08:31:05;22.30;36.70
11246;DHT22;59870;50.106;8.580;2023-04-06T08:33:34;22.60;35.60
11246;DHT22;59870;50.106;8.580;2023-04-06T08:36:11;22.70;34.90
11246;DHT22;59870;50.106;8.580;2023-04-06T08:38:39;23.00;34.00
11246;DHT22;59870;50.106;8.580;2023-04-06T08:41:11;23.10;33.90
11246;DHT22;59870;50.106;8.580;2023-04-06T08:43:49;23.00;34.50
11246;DHT22;59870;50.106;8.580;2023-04-06T08:46:18;23.20;34.90
11246;DHT22;59870;50.106;8.580;2023-04-06T08:48:47;23.30;33.90
11246;DHT22;59870;50.106;8.580;2023-04-06T08:51:17;23.70;33.70
11246;DHT22;59870;50.106;8.580;2023-04-06T08:53:47;23.80;32.80
11246;DHT22;59870;50.106;8.580;2023-04-06T08:56:15;24.10;31.70
11246;DHT22;59870;50.106;8.580;2023-04-06T08:58:43;24.30;31.00
11246;DHT22;59870;50.106;8.580;2023-04-06T09:01:12;24.40;31.20
11246;DHT22;59870;50.106;8.580;2023-04-06T09:03:42;24.60;31.20
11246;DHT22;59870;50.106;8.580;2023-04-06T09:06:11;24.90;31.50
11246;DHT22;59870;50.106;8.580;2023-04-06T09:08:40;25.20;29.80
11246;DHT22;59870;50.106;8.580;2023-04-06T09:11:08;25.20;30.30
11246;DHT22;59870;50.106;8.580;2023-04-06T09:16:13;25.20;30.70
11246;DHT22;59870;50.106;8.580;2023-04-06T09:18:41;25.40;30.70
11246;DHT22;59870;50.106;8.580;2023-04-06T09:21:10;25.50;30.30
11246;DHT22;59870;50.106;8.580;2023-04-06T09:23:38;25.70;28.60
11246;DHT22;59870;50.106;8.580;2023-04-06T09:26:14;25.80;29.20
11246;DHT22;59870;50.106;8.580;2023-04-06T09:28:47;25.90;30.00
11246;DHT22;59870;50.106;8.580;2023-04-06T09:31:20;25.90;29.90
11246;DHT22;59870;50.106;8.580;2023-04-06T09:33:48;25.80;29.00
11246;DHT22;59870;50.106;8.580;2023-04-06T09:36:16;26.00;29.80
11246;DHT22;59870;50.106;8.580;2023-04-06T09:38:53;26.00;29.50
11246;DHT22;59870;50.106;8.580;2023-04-06T09:41:25;25.90;29.90
11246;DHT22;59870;50.106;8.580;2023-04-06T09:44:04;25.90;30.50
11246;DHT22;59870;50.106;8.580;2023-04-06T09:46:40;25.80;30.80
11246;DHT22;59870;50.106;8.580;2023-04-06T09:49:31;25.90;30.10
11246;DHT22;59870;50.106;8.580;2023-04-06T09:52:03;25.70;29.60
11246;DHT22;59870;50.106;8.580;2023-04-06T09:54:31;25.60;30.10
11246;DHT22;59870;50.106;8.580;2023-04-06T09:57:04;25.40;29.20
11246;DHT22;59870;50.106;8.580;2023-04-06T10:05:54;24.70;31.00
11246;DHT22;59870;50.106;8.580;2023-04-06T10:08:24;24.50;31.70
11246;DHT22;59870;50.106;8.580;2023-04-06T10:10:54;24.20;31.60
11246;DHT22;59870;50.106;8.580;2023-04-06T10:13:24;24.00;30.40
11246;DHT22;59870;50.106;8.580;2023-04-06T10:15:52;23.80;31.10
11246;DHT22;59870;50.106;8.580;2023-04-06T10:18:19;23.50;32.20
11246;DHT22;59870;50.106;8.580;2023-04-06T10:20:57;23.40;32.50
11246;DHT22;59870;50.106;8.580;2023-04-06T10:26:02;22.90;32.60
11246;DHT22;59870;50.106;8.580;2023-04-06T10:28:36;22.70;32.40
11246;DHT22;59870;50.106;8.580;2023-04-06T10:31:07;22.60;33.10
11246;DHT22;59870;50.106;8.580;2023-04-06T10:33:34;22.40;34.10
11246;DHT22;59870;50.106;8.580;2023-04-06T10:36:15;22.20;33.30
11246;DHT22;59870;50.106;8.580;2023-04-06T10:39:00;21.90;33.30
11246;DHT22;59870;50.106;8.580;2023-04-06T10:41:45;21.80;33.00
11246;DHT22;59870;50.106;8.580;2023-04-06T10:44:23;21.70;34.00
11246;DHT22;59870;50.106;8.580;2023-04-06T10:46:58;21.60;34.30
11246;DHT22;59870;50.106;8.580;2023-04-06T10:49:28;21.50;35.20
11246;DHT22;59870;50.106;8.580;2023-04-06T10:51:56;21.50;35.20
11246;DHT22;59870;50.106;8.580;2023-04-06T10:54:26;21.80;34.50
11246;DHT22;59870;50.106;8.580;2023-04-06T10:56:54;21.20;32.90
11246;DHT22;59870;50.106;8.580;2023-04-06T10:59:28;21.10;34.80
11246;DHT22;59870;50.106;8.580;2023-04-06T11:01:56;21.00;35.00
11246;DHT22;59870;50.106;8.580;2023-04-06T11:04:24;20.90;36.00
11246;DHT22;59870;50.106;8.580;2023-04-06T11:06:52;20.80;36.30
11246;DHT22;59870;50.106;8.580;2023-04-06T11:19:03;20.10;34.70
11246;DHT22;59870;50.106;8.580;2023-04-06T11:21:42;20.10;34.70
11246;DHT22;59870;50.106;8.580;2023-04-06T11:24:24;20.00;34.80
11246;DHT22;59870;50.106;8.580;2023-04-06T11:26:55;19.80;35.70
11246;DHT22;59870;50.106;8.580;2023-04-06T11:29:28;19.80;35.70
11246;DHT22;59870;50.106;8.580;2023-04-06T11:32:01;19.70;34.40
11246;DHT22;59870;50.106;8.580;2023-04-06T11:34:30;19.50;34.80
11246;DHT22;59870;50.106;8.580;2023-04-06T11:37:01;19.50;36.60
11246;DHT22;59870;50.106;8.580;2023-04-06T11:39:30;19.40;35.40
11246;DHT22;59870;50.106;8.580;2023-04-06T11:41:59;19.80;36.80
11246;DHT22;59870;50.106;8.580;2023-04-06T11:44:36;19.30;37.10
11246;DHT22;59870;50.106;8.580;2023-04-06T11:47:07;19.40;39.30
11246;DHT22;59870;50.106;8.580;2023-04-06T11:49:42;19.40;36.30
11246;DHT22;59870;50.106;8.580;2023-04-06T11:52:17;19.50;36.50
11246;DHT22;59870;50.106;8.580;2023-04-06T11:54:46;19.50;37.00
11246;DHT22;59870;50.106;8.580;2023-04-06T11:57:15;19.50;36.50
11246;DHT22;59870;50.106;8.580;2023-04-06T11:59:45;19.60;38.40
11246;DHT22;59870;50.106;8.580;2023-04-06T12:02:13;19.60;38.20
11246;DHT22;59870;50.106;8.580;2023-04-06T12:04:41;19.60;36.60
11246;DHT22;59870;50.106;8.580;2023-04-06T12:07:09;19.80;36.30
11246;DHT22;59870;50.106;8.580;2023-04-06T12:25:05;20.30;37.40
11246;DHT22;59870;50.106;8.580;2023-04-06T12:27:34;20.50;37.30
11246;DHT22;59870;50.106;8.580;2023-04-06T12:33:17;20.60;35.30
11246;DHT22;59870;50.106;8.580;2023-04-06T12:35:45;20.70;35.60
11246;DHT22;59870;50.106;8.580;2023-04-06T12:38:21;20.70;34.90
11246;DHT22;59870;50.106;8.580;2023-04-06T12:40:49;20.80;33.80
11246;DHT22;59870;50.106;8.580;2023-04-06T12:43:17;20.80;33.70
11246;DHT22;59870;50.106;8.580;2023-04-06T12:45:44;20.80;33.40
11246;DHT22;59870;50.106;8.580;2023-04-06T12:48:13;20.90;33.20
11246;DHT22;59870;50.106;8.580;2023-04-06T12:50:41;20.90;33.70
11246;DHT22;59870;50.106;8.580;2023-04-06T12:53:08;20.90;33.80
11246;DHT22;59870;50.106;8.580;2023-04-06T12:55:36;20.90;32.90
11246;DHT22;59870;50.106;8.580;2023-04-06T12:58:04;20.90;34.30
11246;DHT22;59870;50.106;8.580;2023-04-06T13:00:32;20.90;33.10
11246;DHT22;59870;50.106;8.580;2023-04-06T13:03:00;20.90;33.20
11246;DHT22;59870;50.106;8.580;2023-04-06T13:05:27;20.90;33.80
11246;DHT22;59870;50.106;8.580;2023-04-06T13:07:57;20.90;33.30
11246;DHT22;59870;50.106;8.580;2023-04-06T13:10:24;20.90;33.40
11246;DHT22;59870;50.106;8.580;2023-04-06T13:12:52;20.90;33.00
11246;DHT22;59870;50.106;8.580;2023-04-06T13:15:21;20.90;32.80
11246;DHT22;59870;50.106;8.580;2023-04-06T13:17:50;20.80;32.90
11246;DHT22;59870;50.106;8.580;2023-04-06T13:20:20;20.80;31.80
11246;DHT22;59870;50.106;8.580;2023-04-06T13:22:48;20.70;32.70
11246;DHT22;59870;50.106;8.580;2023-04-06T13:25:16;20.70;32.60
11246;DHT22;59870;50.106;8.580;2023-04-06T13:27:44;20.70;34.10
11246;DHT22;59870;50.106;8.580;2023-04-06T13:30:15;20.80;33.30
11246;DHT22;59870;50.106;8.580;2023-04-06T13:32:44;20.80;34.00
11246;DHT22;59870;50.106;8.580;2023-04-06T13:35:12;20.80;33.50
11246;DHT22;59870;50.106;8.580;2023-04-06T13:37:40;20.80;33.60
11246;DHT22;59870;50.106;8.580;2023-04-06T13:40:08;20.80;33.90
11246;DHT22;59870;50.106;8.580;2023-04-06T13:42:36;20.90;34.90
11246;DHT22;59870;50.106;8.580;2023-04-06T13:45:05;21.00;35.10
11246;DHT22;59870;50.106;8.580;2023-04-06T13:47:33;21.00;33.10
11246;DHT22;59870;50.106;8.580;2023-04-06T13:50:02;21.00;33.40
11246;DHT22;59870;50.106;8.580;2023-04-06T13:52:30;21.10;33.40
11246;DHT22;59870;50.106;8.580;2023-04-06T13:54:58;21.20;32.60
11246;DHT22;59870;50.106;8.580;2023-04-06T13:57:26;21.20;32.70
11246;DHT22;59870;50.106;8.580;2023-04-06T13:59:53;21.40;31.80
11246;DHT22;59870;50.106;8.580;2023-04-06T14:02:21;21.10;32.50
11246;DHT22;59870;50.106;8.580;2023-04-06T14:04:55;21.00;32.80
11246;DHT22;59870;50.106;8.580;2023-04-06T14:07:22;21.20;32.80
11246;DHT22;59870;50.106;8.580;2023-04-06T14:09:50;21.30;33.60
11246;DHT22;59870;50.106;8.580;2023-04-06T14:12:18;21.30;34.10
11246;DHT22;59870;50.106;8.580;2023-04-06T14:14:46;21.00;33.00
11246;DHT22;59870;50.106;8.580;2023-04-06T14:17:13;21.20;33.20
11246;DHT22;59870;50.106;8.580;2023-04-06T14:19:41;21.00;32.10
11246;DHT22;59870;50.106;8.580;2023-04-06T14:22:08;20.90;31.80
11246;DHT22;59870;50.106;8.580;2023-04-06T14:24:36;20.80;31.90
11246;DHT22;59870;50.106;8.580;2023-04-06T14:27:04;20.80;32.50
11246;DHT22;59870;50.106;8.580;2023-04-06T14:29:34;21.00;32.10
11246;DHT22;59870;50.106;8.580;2023-04-06T14:32:03;20.90;32.00
11246;DHT22;59870;50.106;8.580;2023-04-06T14:34:30;20.60;31.40
11246;DHT22;59870;50.106;8.580;2023-04-06T14:36:58;20.70;32.50
11246;DHT22;59870;50.106;8.580;2023-04-06T14:39:26;20.50;32.50
11246;DHT22;59870;50.106;8.580;2023-04-06T14:41:54;20.50;32.00
11246;DHT22;59870;50.106;8.580;2023-04-06T14:44:21;20.10;32.80
11246;DHT22;59870;50.106;8.580;2023-04-06T14:46:49;20.10;33.80
11246;DHT22;59870;50.106;8.580;2023-04-06T14:49:17;20.30;34.10
11246;DHT22;59870;50.106;8.580;2023-04-06T14:51:45;20.00;34.10
11246;DHT22;59870;50.106;8.580;2023-04-06T14:54:12;20.30;34.10
11246;DHT22;59870;50.106;8.580;2023-04-06T14:56:40;20.30;33.60
11246;DHT22;59870;50.106;8.580;2023-04-06T14:59:07;20.10;32.80
11246;DHT22;59870;50.106;8.580;2023-04-06T15:01:35;20.00;33.10
11246;DHT22;59870;50.106;8.580;2023-04-06T15:04:03;20.20;32.20
11246;DHT22;59870;50.106;8.580;2023-04-06T15:09:50;19.80;33.40
11246;DHT22;59870;50.106;8.580;2023-04-06T15:12:18;20.10;33.40
11246;DHT22;59870;50.106;8.580;2023-04-06T15:14:46;20.00;32.90
11246;DHT22;59870;50.106;8.580;2023-04-06T15:17:14;20.20;32.80
11246;DHT22;59870;50.106;8.580;2023-04-06T15:19:41;20.00;32.70
11246;DHT22;59870;50.106;8.580;2023-04-06T15:22:10;20.20;32.20
11246;DHT22;59870;50.106;8.580;2023-04-06T15:24:38;19.80;32.00
11246;DHT22;59870;50.106;8.580;2023-04-06T15:27:06;19.80;32.00
11246;DHT22;59870;50.106;8.580;2023-04-06T15:29:35;20.10;32.00
11246;DHT22;59870;50.106;8.580;2023-04-06T15:32:03;20.30;32.00
11246;DHT22;59870;50.106;8.580;2023-04-06T15:34:31;20.00;31.20
11246;DHT22;59870;50.106;8.580;2023-04-06T15:37:03;20.10;32.50
11246;DHT22;59870;50.106;8.580;2023-04-06T15:39:32;19.90;31.50
11246;DHT22;59870;50.106;8.580;2023-04-06T15:42:00;19.80;31.70
11246;DHT22;59870;50.106;8.580;2023-04-06T15:44:28;19.90;31.60
11246;DHT22;59870;50.106;8.580;2023-04-06T15:46:56;19.80;32.60
11246;DHT22;59870;50.106;8.580;2023-04-06T15:49:24;19.80;32.10
11246;DHT22;59870;50.106;8.580;2023-04-06T15:51:52;19.40;32.80
11246;DHT22;59870;50.106;8.580;2023-04-06T15:54:19;19.30;32.20
11246;DHT22;59870;50.106;8.580;2023-04-06T15:56:48;19.50;32.80
11246;DHT22;59870;50.106;8.580;2023-04-06T15:59:17;19.20;32.30
11246;DHT22;59870;50.106;8.580;2023-04-06T16:01:47;19.40;32.40
11246;DHT22;59870;50.106;8.580;2023-04-06T16:04:15;19.40;31.70
11246;DHT22;59870;50.106;8.580;2023-04-06T16:06:43;19.20;33.00
11246;DHT22;59870;50.106;8.580;2023-04-06T16:09:11;19.30;32.90
11246;DHT22;59870;50.106;8.580;2023-04-06T16:12:06;19.30;33.50
11246;DHT22;59870;50.106;8.580;2023-04-06T16:14:35;18.90;33.70
11246;DHT22;59870;50.106;8.580;2023-04-06T16:17:03;18.90;33.90
11246;DHT22;59870;50.106;8.580;2023-04-06T16:19:32;19.10;34.60
11246;DHT22;59870;50.106;8.580;2023-04-06T16:21:59;19.10;34.30
11246;DHT22;59870;50.106;8.580;2023-04-06T16:24:27;18.90;34.10
11246;DHT22;59870;50.106;8.580;2023-04-06T16:26:55;18.90;34.70
11246;DHT22;59870;50.106;8.580;2023-04-06T16:29:25;18.80;34.60
11246;DHT22;59870;50.106;8.580;2023-04-06T16:31:54;18.90;35.00
11246;DHT22;59870;50.106;8.580;2023-04-06T16:34:23;18.80;34.70
11246;DHT22;59870;50.106;8.580;2023-04-06T16:36:51;18.70;34.80
11246;DHT22;59870;50.106;8.580;2023-04-06T16:39:19;18.50;35.00
11246;DHT22;59870;50.106;8.580;2023-04-06T16:41:48;18.50;35.80
11246;DHT22;59870;50.106;8.580;2023-04-06T16:44:16;18.60;35.40
11246;DHT22;59870;50.106;8.580;2023-04-06T16:46:44;18.30;35.30
11246;DHT22;59870;50.106;8.580;2023-04-06T16:49:13;18.60;36.40
11246;DHT22;59870;50.106;8.580;2023-04-06T16:51:58;18.10;36.20
11246;DHT22;59870;50.106;8.580;2023-04-06T16:54:29;18.20;36.50
11246;DHT22;59870;50.106;8.580;2023-04-06T16:56:58;18.40;37.00
11246;DHT22;59870;50.106;8.580;2023-04-06T16:59:30;18.40;36.70
11246;DHT22;59870;50.106;8.580;2023-04-06T17:02:00;18.30;36.80
11246;DHT22;59870;50.106;8.580;2023-04-06T17:04:29;18.10;37.20
11246;DHT22;59870;50.106;8.580;2023-04-06T17:06:57;18.40;36.50
11246;DHT22;59870;50.106;8.580;2023-04-06T17:09:25;18.30;37.30
11246;DHT22;59870;50.106;8.580;2023-04-06T17:11:53;18.10;37.00
11246;DHT22;59870;50.106;8.580;2023-04-06T17:14:20;18.00;37.30
11246;DHT22;59870;50.106;8.580;2023-04-06T17:16:48;18.00;36.70
11246;DHT22;59870;50.106;8.580;2023-04-06T17:19:16;17.90;36.60
11246;DHT22;59870;50.106;8.580;2023-04-06T17:21:43;18.10;36.70
11246;DHT22;59870;50.106;8.580;2023-04-06T17:24:11;17.80;36.90
11246;DHT22;59870;50.106;8.580;2023-04-06T17:26:39;17.90;37.10
11246;DHT22;59870;50.106;8.580;2023-04-06T17:29:08;18.00;38.70
11246;DHT22;59870;50.106;8.580;2023-04-06T17:31:35;17.70;37.90
11246;DHT22;59870;50.106;8.580;2023-04-06T17:34:04;17.90;38.40
11246;DHT22;59870;50.106;8.580;2023-04-06T17:36:33;17.40;38.90
11246;DHT22;59870;50.106;8.580;2023-04-06T17:39:01;17.60;38.90
11246;DHT22;59870;50.106;8.580;2023-04-06T17:41:29;17.70;39.60
11246;DHT22;59870;50.106;8.580;2023-04-06T17:43:59;17.70;39.40
11246;DHT22;59870;50.106;8.580;2023-04-06T17:46:27;17.70;39.80
11246;DHT22;59870;50.106;8.580;2023-04-06T17:48:56;17.40;39.40
11246;DHT22;59870;50.106;8.580;2023-04-06T17:51:24;17.50;39.60
11246;DHT22;59870;50.106;8.580;2023-04-06T17:53:54;17.30;40.30
11246;DHT22;59870;50.106;8.580;2023-04-06T17:56:23;17.20;40.80
11246;DHT22;59870;50.106;8.580;2023-04-06T18:28:12;16.50;44.90
11246;DHT22;59870;50.106;8.580;2023-04-06T18:30:41;16.60;44.00
11246;DHT22;59870;50.106;8.580;2023-04-06T18:33:17;16.50;44.30
11246;DHT22;59870;50.106;8.580;2023-04-06T18:36:05;15.90;44.60
11246;DHT22;59870;50.106;8.580;2023-04-06T18:39:08;16.40;45.80
11246;DHT22;59870;50.106;8.580;2023-04-06T18:47:48;16.30;48.90
11246;DHT22;59870;50.106;8.580;2023-04-06T18:50:16;16.70;49.50
11246;DHT22;59870;50.106;8.580;2023-04-06T18:52:43;16.20;49.50
11246;DHT22;59870;50.106;8.580;2023-04-06T18:55:12;16.10;50.60